Pierre Regional Airport
KPIR : now visible

Airfield :











YOU CAN JOIN US ON...

 
LOGIN :

Register | Disclaimer

   EN    FR    IT 

 









Legend :    VFR   Marginal VFR   IFR   Intensive IFR   Very Intensive IFR
Visi :
Ceiling :
>= 8 km
>= 3000ft
5 to 8 km
1000 to 3000 ft
1500m to 5 km
500 to 1000 ft
800 to 1500m
200 to 500 ft
< 800m
< 200 ft
Symbols :   Thunderstorms  Fog  Heavy snow  Heavy precipitations  Wind > 20 kt






- Airport Elevation : 1744 ft
- IATA code : PIR


KPIR - Pierre Regional

CURRENT METAR :
  • 071453Z AUTO 12004KT 10SM CLR 02/M02 A3060 RMK AO2 SLP377 T00171017 53006

EXPIRED METARs :
  • 071353Z AUTO 07004KT 10SM CLR M02/M04 A3059 RMK AO2 SLP377 T10171039
  • 071253Z AUTO 05005KT 10SM CLR M04/M06 A3058 RMK AO2 SLP374 T10391056

TAF KPIR
Valid from the 07 at 12:00 until the 08 at 12:00 UTC


071120Z 0712/0812 00000KT P6SM SKC
FM071500 11005KT P6SM SKC
FM080000 14004KT P6SM SKC
FM080500 19006KT P6SM SKC
KZMP FIR / North America



MET'MAP, your aeronautical weather chart ! - Copyright ORBIFLY December 2007 - Disclaimer

ORBIFLY MET'MAP TEAM :

Programming & Development : Alexandra Zaïnal
Original concept : Baudouin d'Aumeries
Technical & hardware support : Manuel Goepfert
Assistance : Marc-Olivier Méhu




SOURCES & CREDITS :

   NOAA       Earth
Advisory